sensor_id;sensor_type;location;lat;lon;timestamp;pressure;altitude;pressure_sealevel;temperature;humidity
32081;BME280;18593;51.426;7.030;2024-02-04T00:01:05;101237.91;;;10.20;97.76
32081;BME280;18593;51.426;7.030;2024-02-04T00:03:33;101233.78;;;10.17;97.48
32081;BME280;18593;51.426;7.030;2024-02-04T00:06:01;101250.78;;;10.16;97.62
32081;BME280;18593;51.426;7.030;2024-02-04T00:08:28;101251.41;;;10.18;97.44
32081;BME280;18593;51.426;7.030;2024-02-04T00:10:56;101243.63;;;10.17;97.64
32081;BME280;18593;51.426;7.030;2024-02-04T00:13:23;101227.63;;;10.17;97.41
32081;BME280;18593;51.426;7.030;2024-02-04T00:15:51;101232.50;;;10.13;97.19
32081;BME280;18593;51.426;7.030;2024-02-04T00:18:21;101228.19;;;10.12;97.18
32081;BME280;18593;51.426;7.030;2024-02-04T00:20:49;101211.19;;;10.13;97.12
32081;BME280;18593;51.426;7.030;2024-02-04T00:23:16;101202.16;;;10.14;97.06
32081;BME280;18593;51.426;7.030;2024-02-04T00:25:44;101209.09;;;10.09;96.75
32081;BME280;18593;51.426;7.030;2024-02-04T00:28:11;101202.47;;;10.04;96.92
32081;BME280;18593;51.426;7.030;2024-02-04T00:30:39;101216.63;;;10.05;97.17
32081;BME280;18593;51.426;7.030;2024-02-04T00:33:07;101206.22;;;10.10;97.32
32081;BME280;18593;51.426;7.030;2024-02-04T00:35:36;101220.00;;;10.14;97.29
32081;BME280;18593;51.426;7.030;2024-02-04T00:38:03;101213.84;;;10.13;97.09
32081;BME280;18593;51.426;7.030;2024-02-04T00:40:31;101219.84;;;10.15;97.03
32081;BME280;18593;51.426;7.030;2024-02-04T00:42:58;101230.03;;;10.12;97.24
32081;BME280;18593;51.426;7.030;2024-02-04T00:45:26;101230.88;;;10.12;97.23
32081;BME280;18593;51.426;7.030;2024-02-04T00:47:53;101223.88;;;10.11;97.36
32081;BME280;18593;51.426;7.030;2024-02-04T00:50:21;101215.88;;;10.11;97.37
32081;BME280;18593;51.426;7.030;2024-02-04T00:52:50;101227.53;;;10.10;97.67
32081;BME280;18593;51.426;7.030;2024-02-04T00:55:19;101229.00;;;10.13;97.91
32081;BME280;18593;51.426;7.030;2024-02-04T00:57:47;101224.72;;;10.12;97.98
32081;BME280;18593;51.426;7.030;2024-02-04T01:00:15;101217.72;;;10.11;97.89
32081;BME280;18593;51.426;7.030;2024-02-04T01:02:43;101210.94;;;10.08;98.39
32081;BME280;18593;51.426;7.030;2024-02-04T01:05:11;101215.44;;;10.07;98.24
32081;BME280;18593;51.426;7.030;2024-02-04T01:07:40;101213.97;;;10.05;98.23
32081;BME280;18593;51.426;7.030;2024-02-04T01:10:10;101209.28;;;10.07;98.33
32081;BME280;18593;51.426;7.030;2024-02-04T01:12:38;101211.94;;;10.07;98.61
32081;BME280;18593;51.426;7.030;2024-02-04T01:15:06;101209.09;;;10.09;98.62
32081;BME280;18593;51.426;7.030;2024-02-04T01:17:34;101216.25;;;10.08;98.60
32081;BME280;18593;51.426;7.030;2024-02-04T01:20:01;101216.47;;;10.06;98.38
32081;BME280;18593;51.426;7.030;2024-02-04T01:22:29;101217.72;;;10.11;98.64
32081;BME280;18593;51.426;7.030;2024-02-04T01:24:56;101219.19;;;10.13;98.48
32081;BME280;18593;51.426;7.030;2024-02-04T01:27:25;101219.38;;;10.12;98.19
32081;BME280;18593;51.426;7.030;2024-02-04T01:29:52;101212.56;;;10.09;98.11
32081;BME280;18593;51.426;7.030;2024-02-04T01:32:22;101220.97;;;10.06;98.32
32081;BME280;18593;51.426;7.030;2024-02-04T01:34:50;101223.22;;;10.09;98.60
32081;BME280;18593;51.426;7.030;2024-02-04T01:37:17;101218.91;;;10.08;98.84
32081;BME280;18593;51.426;7.030;2024-02-04T01:39:45;101231.63;;;10.06;98.91
32081;BME280;18593;51.426;7.030;2024-02-04T01:42:12;101228.97;;;10.06;99.02
32081;BME280;18593;51.426;7.030;2024-02-04T01:44:41;101228.31;;;10.04;99.28
32081;BME280;18593;51.426;7.030;2024-02-04T01:47:09;101230.34;;;10.02;99.46
32081;BME280;18593;51.426;7.030;2024-02-04T01:49:38;101227.69;;;10.02;99.55
32081;BME280;18593;51.426;7.030;2024-02-04T01:52:06;101216.38;;;10.00;99.65
32081;BME280;18593;51.426;7.030;2024-02-04T01:54:35;101210.31;;;10.06;99.93
32081;BME280;18593;51.426;7.030;2024-02-04T01:57:05;101201.91;;;10.09;99.99
32081;BME280;18593;51.426;7.030;2024-02-04T01:59:33;101204.53;;;10.02;99.78
32081;BME280;18593;51.426;7.030;2024-02-04T02:02:02;101201.28;;;10.07;100.00
32081;BME280;18593;51.426;7.030;2024-02-04T02:04:29;101197.59;;;10.08;100.00
32081;BME280;18593;51.426;7.030;2024-02-04T02:06:58;101194.31;;;10.06;100.00
32081;BME280;18593;51.426;7.030;2024-02-04T02:09:27;101191.25;;;10.09;100.00
32081;BME280;18593;51.426;7.030;2024-02-04T02:12:06;101205.22;;;10.11;100.00
32081;BME280;18593;51.426;7.030;2024-02-04T02:14:41;101197.22;;;10.11;100.00
32081;BME280;18593;51.426;7.030;2024-02-04T02:17:15;101194.16;;;10.14;100.00
32081;BME280;18593;51.426;7.030;2024-02-04T02:19:54;101205.22;;;10.11;100.00
32081;BME280;18593;51.426;7.030;2024-02-04T02:22:34;101209.53;;;10.12;100.00
32081;BME280;18593;51.426;7.030;2024-02-04T02:25:07;101203.75;;;10.09;100.00
32081;BME280;18593;51.426;7.030;2024-02-04T02:27:38;101205.41;;;10.10;100.00
32081;BME280;18593;51.426;7.030;2024-02-04T02:30:13;101206.88;;;10.12;100.00
32081;BME280;18593;51.426;7.030;2024-02-04T02:32:41;101198.69;;;10.14;100.00
32081;BME280;18593;51.426;7.030;2024-02-04T02:35:08;101205.22;;;10.11;100.00
32081;BME280;18593;51.426;7.030;2024-02-04T02:37:41;101199.50;;;10.14;100.00
32081;BME280;18593;51.426;7.030;2024-02-04T02:40:19;101202.97;;;10.15;100.00
32081;BME280;18593;51.426;7.030;2024-02-04T02:42:49;101199.34;;;10.16;100.00
32081;BME280;18593;51.426;7.030;2024-02-04T02:45:21;101192.31;;;10.15;100.00
32081;BME280;18593;51.426;7.030;2024-02-04T02:47:52;101191.13;;;10.17;100.00
32081;BME280;18593;51.426;7.030;2024-02-04T02:50:21;101197.66;;;10.15;100.00
32081;BME280;18593;51.426;7.030;2024-02-04T02:52:49;101190.69;;;10.14;100.00
32081;BME280;18593;51.426;7.030;2024-02-04T02:55:18;101200.53;;;10.13;100.00
32081;BME280;18593;51.426;7.030;2024-02-04T02:57:45;101200.31;;;10.15;100.00
32081;BME280;18593;51.426;7.030;2024-02-04T03:00:16;101199.13;;;10.17;100.00
32081;BME280;18593;51.426;7.030;2024-02-04T03:02:44;101198.69;;;10.14;100.00
32081;BME280;18593;51.426;7.030;2024-02-04T03:05:12;101190.88;;;10.12;100.00
32081;BME280;18593;51.426;7.030;2024-02-04T03:07:40;101198.06;;;10.12;100.00
32081;BME280;18593;51.426;7.030;2024-02-04T03:10:08;101186.16;;;10.14;100.00
32081;BME280;18593;51.426;7.030;2024-02-04T03:12:37;101189.41;;;10.10;100.00
32081;BME280;18593;51.426;7.030;2024-02-04T03:15:06;101198.88;;;10.12;100.00
32081;BME280;18593;51.426;7.030;2024-02-04T03:17:35;101191.13;;;10.17;100.00
32081;BME280;18593;51.426;7.030;2024-02-04T03:20:03;101194.25;;;10.21;100.00
32081;BME280;18593;51.426;7.030;2024-02-04T03:22:31;101196.53;;;10.24;100.00
32081;BME280;18593;51.426;7.030;2024-02-04T03:24:58;101192.41;;;10.21;100.00
32081;BME280;18593;51.426;7.030;2024-02-04T03:27:26;101188.72;;;10.22;100.00
32081;BME280;18593;51.426;7.030;2024-02-04T03:29:55;101188.38;;;10.25;100.00
32081;BME280;18593;51.426;7.030;2024-02-04T03:32:22;101182.03;;;10.26;100.00
32081;BME280;18593;51.426;7.030;2024-02-04T03:34:50;101177.72;;;10.25;100.00
32081;BME280;18593;51.426;7.030;2024-02-04T03:37:17;101169.25;;;10.22;100.00
32081;BME280;18593;51.426;7.030;2024-02-04T03:39:45;101173.09;;;10.19;100.00
32081;BME280;18593;51.426;7.030;2024-02-04T03:42:12;101167.41;;;10.22;100.00
32081;BME280;18593;51.426;7.030;2024-02-04T03:44:40;101161.72;;;10.25;100.00
32081;BME280;18593;51.426;7.030;2024-02-04T03:47:09;101160.22;;;10.23;100.00
32081;BME280;18593;51.426;7.030;2024-02-04T03:49:36;101156.38;;;10.25;100.00
32081;BME280;18593;51.426;7.030;2024-02-04T03:52:04;101158.38;;;10.23;100.00
32081;BME280;18593;51.426;7.030;2024-02-04T03:54:32;101165.53;;;10.23;100.00
32081;BME280;18593;51.426;7.030;2024-02-04T03:56:59;101168.69;;;10.26;100.00
32081;BME280;18593;51.426;7.030;2024-02-04T03:59:27;101170.53;;;10.26;100.00
32081;BME280;18593;51.426;7.030;2024-02-04T04:01:54;101179.34;;;10.26;100.00
32081;BME280;18593;51.426;7.030;2024-02-04T04:04:25;101170.97;;;10.29;100.00
32081;BME280;18593;51.426;7.030;2024-02-04T04:06:52;101178.78;;;10.31;100.00
32081;BME280;18593;51.426;7.030;2024-02-04T04:09:20;101154.78;;;10.31;100.00
32081;BME280;18593;51.426;7.030;2024-02-04T04:11:48;101151.31;;;10.30;100.00
32081;BME280;18593;51.426;7.030;2024-02-04T04:14:15;101151.94;;;10.32;100.00
32081;BME280;18593;51.426;7.030;2024-02-04T04:16:43;101155.81;;;10.30;100.00
32081;BME280;18593;51.426;7.030;2024-02-04T04:19:10;101151.69;;;10.27;99.89
32081;BME280;18593;51.426;7.030;2024-02-04T04:21:39;101155.97;;;10.28;100.00
32081;BME280;18593;51.426;7.030;2024-02-04T04:24:07;101165.00;;;10.27;100.00
32081;BME280;18593;51.426;7.030;2024-02-04T04:26:35;101172.38;;;10.25;100.00
32081;BME280;18593;51.426;7.030;2024-02-04T04:29:02;101173.22;;;10.26;100.00
32081;BME280;18593;51.426;7.030;2024-02-04T04:31:30;101175.06;;;10.25;100.00
32081;BME280;18593;51.426;7.030;2024-02-04T04:33:58;101180.38;;;10.25;100.00
32081;BME280;18593;51.426;7.030;2024-02-04T04:36:25;101186.72;;;10.24;100.00
32081;BME280;18593;51.426;7.030;2024-02-04T04:38:54;101191.22;;;10.24;100.00
32081;BME280;18593;51.426;7.030;2024-02-04T04:41:21;101187.06;;;10.21;100.00
32081;BME280;18593;51.426;7.030;2024-02-04T04:43:49;101189.09;;;10.19;100.00
32081;BME280;18593;51.426;7.030;2024-02-04T04:46:17;101200.41;;;10.21;100.00
32081;BME280;18593;51.426;7.030;2024-02-04T04:48:44;101196.09;;;10.20;99.75
32081;BME280;18593;51.426;7.030;2024-02-04T04:51:12;101187.84;;;10.15;99.65
32081;BME280;18593;51.426;7.030;2024-02-04T04:53:39;101187.44;;;10.18;99.67
32081;BME280;18593;51.426;7.030;2024-02-04T04:56:08;101182.75;;;10.20;99.64
32081;BME280;18593;51.426;7.030;2024-02-04T04:58:35;101178.06;;;10.22;99.67
32081;BME280;18593;51.426;7.030;2024-02-04T05:01:04;101164.94;;;10.21;99.16
32081;BME280;18593;51.426;7.030;2024-02-04T05:03:32;101175.75;;;10.19;98.86
32081;BME280;18593;51.426;7.030;2024-02-04T05:06:00;101159.59;;;10.21;98.98
32081;BME280;18593;51.426;7.030;2024-02-04T05:08:28;101174.38;;;10.23;98.96
32081;BME280;18593;51.426;7.030;2024-02-04T05:10:55;101168.22;;;10.23;98.75
32081;BME280;18593;51.426;7.030;2024-02-04T05:13:24;101155.09;;;10.21;98.49
32081;BME280;18593;51.426;7.030;2024-02-04T05:15:51;101160.41;;;10.21;98.38
32081;BME280;18593;51.426;7.030;2024-02-04T05:18:19;101171.56;;;10.25;98.58
32081;BME280;18593;51.426;7.030;2024-02-04T05:20:46;101170.88;;;10.23;98.26
32081;BME280;18593;51.426;7.030;2024-02-04T05:23:14;101172.47;;;10.17;97.52
32081;BME280;18593;51.426;7.030;2024-02-04T05:25:42;101171.09;;;10.21;97.69
32081;BME280;18593;51.426;7.030;2024-02-04T05:28:09;101180.94;;;10.21;97.36
32081;BME280;18593;51.426;7.030;2024-02-04T05:30:38;101180.09;;;10.20;97.33
32081;BME280;18593;51.426;7.030;2024-02-04T05:33:05;101169.88;;;10.24;97.02
32081;BME280;18593;51.426;7.030;2024-02-04T05:35:35;101155.56;;;10.25;96.89
32081;BME280;18593;51.426;7.030;2024-02-04T05:38:04;101155.97;;;10.28;97.07
32081;BME280;18593;51.426;7.030;2024-02-04T05:40:31;101158.84;;;10.27;96.69
32081;BME280;18593;51.426;7.030;2024-02-04T05:42:59;101152.69;;;10.26;96.67
32081;BME280;18593;51.426;7.030;2024-02-04T05:45:31;101141.22;;;10.26;96.54
32081;BME280;18593;51.426;7.030;2024-02-04T05:48:00;101132.75;;;10.22;96.27
32081;BME280;18593;51.426;7.030;2024-02-04T05:50:28;101135.22;;;10.24;96.41
32081;BME280;18593;51.426;7.030;2024-02-04T05:52:55;101138.72;;;10.24;96.39
32081;BME280;18593;51.426;7.030;2024-02-04T05:55:23;101134.25;;;10.25;96.45
32081;BME280;18593;51.426;7.030;2024-02-04T05:57:50;101140.41;;;10.25;96.40
32081;BME280;18593;51.426;7.030;2024-02-04T06:00:19;101132.41;;;10.25;96.31
32081;BME280;18593;51.426;7.030;2024-02-04T06:02:46;101137.31;;;10.28;96.32
32081;BME280;18593;51.426;7.030;2024-02-04T06:05:15;101129.78;;;10.32;96.60
32081;BME280;18593;51.426;7.030;2024-02-04T06:07:43;101113.56;;;10.34;96.47
32081;BME280;18593;51.426;7.030;2024-02-04T06:10:10;101132.22;;;10.34;96.15
32081;BME280;18593;51.426;7.030;2024-02-04T06:12:39;101125.91;;;10.35;96.29
32081;BME280;18593;51.426;7.030;2024-02-04T06:15:12;101127.47;;;10.29;96.10
32081;BME280;18593;51.426;7.030;2024-02-04T06:17:41;101134.66;;;10.28;96.39
32081;BME280;18593;51.426;7.030;2024-02-04T06:20:10;101126.03;;;10.26;96.57
32081;BME280;18593;51.426;7.030;2024-02-04T06:22:39;101120.06;;;10.24;96.45
32081;BME280;18593;51.426;7.030;2024-02-04T06:25:07;101130.06;;;10.22;96.78
32081;BME280;18593;51.426;7.030;2024-02-04T06:27:34;101123.09;;;10.21;97.04
32081;BME280;18593;51.426;7.030;2024-02-04T06:30:02;101108.56;;;10.24;97.17
32081;BME280;18593;51.426;7.030;2024-02-04T06:32:30;101104.25;;;10.23;97.54
32081;BME280;18593;51.426;7.030;2024-02-04T06:34:57;101099.94;;;10.22;97.60
32081;BME280;18593;51.426;7.030;2024-02-04T06:37:25;101091.94;;;10.22;97.85
32081;BME280;18593;51.426;7.030;2024-02-04T06:39:54;101099.72;;;10.23;98.11
32081;BME280;18593;51.426;7.030;2024-02-04T06:42:21;101102.38;;;10.23;98.11
32081;BME280;18593;51.426;7.030;2024-02-04T06:44:48;101116.75;;;10.22;98.20
32081;BME280;18593;51.426;7.030;2024-02-04T06:47:16;101103.41;;;10.22;98.26
32081;BME280;18593;51.426;7.030;2024-02-04T06:49:44;101095.78;;;10.19;98.33
32081;BME280;18593;51.426;7.030;2024-02-04T06:52:12;101092.50;;;10.17;98.46
32081;BME280;18593;51.426;7.030;2024-02-04T06:54:39;101092.25;;;10.12;98.82
32081;BME280;18593;51.426;7.030;2024-02-04T06:57:08;101091.88;;;10.15;98.95
32081;BME280;18593;51.426;7.030;2024-02-04T06:59:35;101085.72;;;10.15;99.14
32081;BME280;18593;51.426;7.030;2024-02-04T07:02:03;101082.06;;;10.16;99.27
32081;BME280;18593;51.426;7.030;2024-02-04T07:04:31;101086.16;;;10.18;99.35
32081;BME280;18593;51.426;7.030;2024-02-04T07:06:58;101096.81;;;10.18;99.48
32081;BME280;18593;51.426;7.030;2024-02-04T07:09:26;101089.66;;;10.19;99.34
32081;BME280;18593;51.426;7.030;2024-02-04T07:11:53;101092.31;;;10.19;99.43
32081;BME280;18593;51.426;7.030;2024-02-04T07:14:22;101091.47;;;10.18;99.07
32081;BME280;18593;51.426;7.030;2024-02-04T07:16:49;101084.50;;;10.17;99.25
32081;BME280;18593;51.426;7.030;2024-02-04T07:19:17;101080.00;;;10.18;99.23
32081;BME280;18593;51.426;7.030;2024-02-04T07:21:45;101092.72;;;10.16;99.22
32081;BME280;18593;51.426;7.030;2024-02-04T07:24:13;101096.81;;;10.18;99.32
32081;BME280;18593;51.426;7.030;2024-02-04T07:26:40;101108.13;;;10.20;99.41
32081;BME280;18593;51.426;7.030;2024-02-04T07:29:07;101113.47;;;10.20;99.48
32081;BME280;18593;51.426;7.030;2024-02-04T07:31:36;101123.47;;;10.18;99.18
32081;BME280;18593;51.426;7.030;2024-02-04T07:34:04;101117.06;;;10.13;99.15
32081;BME280;18593;51.426;7.030;2024-02-04T07:36:31;101111.53;;;10.14;99.47
32081;BME280;18593;51.426;7.030;2024-02-04T07:38:59;101114.59;;;10.11;99.22
32081;BME280;18593;51.426;7.030;2024-02-04T07:41:28;101105.38;;;10.14;99.48
32081;BME280;18593;51.426;7.030;2024-02-04T07:43:55;101104.56;;;10.13;99.46
32081;BME280;18593;51.426;7.030;2024-02-04T07:46:23;101105.78;;;10.11;99.37
32081;BME280;18593;51.426;7.030;2024-02-04T07:48:52;101102.09;;;10.12;99.62
32081;BME280;18593;51.426;7.030;2024-02-04T07:51:19;101108.25;;;10.12;99.98
32081;BME280;18593;51.426;7.030;2024-02-04T07:53:47;101111.38;;;10.16;99.99
32081;BME280;18593;51.426;7.030;2024-02-04T07:56:15;101094.16;;;10.18;100.00
32081;BME280;18593;51.426;7.030;2024-02-04T07:58:42;101100.94;;;10.21;99.93
32081;BME280;18593;51.426;7.030;2024-02-04T08:01:09;101111.16;;;10.17;100.00
32081;BME280;18593;51.426;7.030;2024-02-04T08:03:37;101102.56;;;10.15;99.96
32081;BME280;18593;51.426;7.030;2024-02-04T08:06:06;101106.88;;;10.16;99.99
32081;BME280;18593;51.426;7.030;2024-02-04T08:08:34;101115.03;;;10.15;99.55
32081;BME280;18593;51.426;7.030;2024-02-04T08:11:02;101112.31;;;10.08;99.44
32081;BME280;18593;51.426;7.030;2024-02-04T08:13:31;101117.28;;;10.11;99.47
32081;BME280;18593;51.426;7.030;2024-02-04T08:15:59;101125.44;;;10.10;99.41
32081;BME280;18593;51.426;7.030;2024-02-04T08:18:27;101115.09;;;10.00;98.68
32081;BME280;18593;51.426;7.030;2024-02-04T08:20:55;101117.19;;;10.04;98.83
32081;BME280;18593;51.426;7.030;2024-02-04T08:23:24;101108.63;;;10.09;98.76
32081;BME280;18593;51.426;7.030;2024-02-04T08:25:51;101106.63;;;10.11;98.86
32081;BME280;18593;51.426;7.030;2024-02-04T08:28:19;101107.47;;;10.18;99.05
32081;BME280;18593;51.426;7.030;2024-02-04T08:30:46;101088.81;;;10.18;98.88
32081;BME280;18593;51.426;7.030;2024-02-04T08:33:14;101095.56;;;10.14;98.40
32081;BME280;18593;51.426;7.030;2024-02-04T08:35:41;101099.47;;;10.18;98.52
32081;BME280;18593;51.426;7.030;2024-02-04T08:38:09;101100.94;;;10.21;98.58
32081;BME280;18593;51.426;7.030;2024-02-04T08:40:38;101121.25;;;10.22;98.62
32081;BME280;18593;51.426;7.030;2024-02-04T08:43:05;101116.56;;;10.24;98.77
32081;BME280;18593;51.426;7.030;2024-02-04T08:45:32;101109.03;;;10.27;98.59
32081;BME280;18593;51.426;7.030;2024-02-04T08:48:00;101099.38;;;10.26;98.50
32081;BME280;18593;51.426;7.030;2024-02-04T08:50:27;101099.94;;;10.22;98.28
32081;BME280;18593;51.426;7.030;2024-02-04T08:52:55;101105.63;;;10.19;97.87
32081;BME280;18593;51.426;7.030;2024-02-04T08:55:24;101101.56;;;10.23;97.88
32081;BME280;18593;51.426;7.030;2024-02-04T08:57:53;101093.78;;;10.21;97.75
32081;BME280;18593;51.426;7.030;2024-02-04T09:00:21;101091.69;;;10.17;97.53
32081;BME280;18593;51.426;7.030;2024-02-04T09:02:48;101092.06;;;10.14;97.81
32081;BME280;18593;51.426;7.030;2024-02-04T09:05:15;101096.81;;;10.18;98.13
32081;BME280;18593;51.426;7.030;2024-02-04T09:07:44;101093.53;;;10.16;98.69
32081;BME280;18593;51.426;7.030;2024-02-04T09:10:11;101092.13;;;10.20;99.10
32081;BME280;18593;51.426;7.030;2024-02-04T09:12:38;101082.75;;;10.24;99.29
32081;BME280;18593;51.426;7.030;2024-02-04T09:15:08;101095.06;;;10.25;99.27
32081;BME280;18593;51.426;7.030;2024-02-04T09:17:36;101087.78;;;10.19;99.36
32081;BME280;18593;51.426;7.030;2024-02-04T09:20:05;101097.75;;;10.25;99.54
32081;BME280;18593;51.426;7.030;2024-02-04T09:22:33;101081.53;;;10.27;99.89
32081;BME280;18593;51.426;7.030;2024-02-04T09:25:01;101084.22;;;10.27;99.54
32081;BME280;18593;51.426;7.030;2024-02-04T09:27:29;101092.41;;;10.25;99.67
32081;BME280;18593;51.426;7.030;2024-02-04T09:29:56;101087.25;;;10.24;99.78
32081;BME280;18593;51.426;7.030;2024-02-04T09:32:26;101090.34;;;10.27;99.74
32081;BME280;18593;51.426;7.030;2024-02-04T09:34:54;101102.66;;;10.28;100.00
32081;BME280;18593;51.426;7.030;2024-02-04T09:37:21;101092.41;;;10.25;99.67
32081;BME280;18593;51.426;7.030;2024-02-04T09:39:49;101092.00;;;10.28;99.64
32081;BME280;18593;51.426;7.030;2024-02-04T09:42:20;101093.47;;;10.31;99.42
32081;BME280;18593;51.426;7.030;2024-02-04T09:44:49;101097.78;;;10.32;99.58
32081;BME280;18593;51.426;7.030;2024-02-04T09:47:17;101097.56;;;10.34;99.52
32081;BME280;18593;51.426;7.030;2024-02-04T09:49:46;101088.75;;;10.33;99.47
32081;BME280;18593;51.426;7.030;2024-02-04T09:52:19;101093.25;;;10.32;99.39
32081;BME280;18593;51.426;7.030;2024-02-04T09:54:53;101091.25;;;10.35;99.56
32081;BME280;18593;51.426;7.030;2024-02-04T09:57:22;101091.66;;;10.38;99.37
32081;BME280;18593;51.426;7.030;2024-02-04T09:59:50;101093.91;;;10.35;99.39
32081;BME280;18593;51.426;7.030;2024-02-04T10:02:17;101097.78;;;10.32;99.39
32081;BME280;18593;51.426;7.030;2024-02-04T10:04:48;101093.25;;;10.32;99.60
32081;BME280;18593;51.426;7.030;2024-02-04T10:07:21;101107.41;;;10.33;99.93
32081;BME280;18593;51.426;7.030;2024-02-04T10:09:48;101107.38;;;10.26;100.00
32081;BME280;18593;51.426;7.030;2024-02-04T10:12:16;101103.06;;;10.25;100.00
32081;BME280;18593;51.426;7.030;2024-02-04T10:14:44;101107.38;;;10.26;100.00
32081;BME280;18593;51.426;7.030;2024-02-04T10:17:15;101112.50;;;10.28;100.00
32081;BME280;18593;51.426;7.030;2024-02-04T10:19:42;101105.91;;;10.24;100.00
32081;BME280;18593;51.426;7.030;2024-02-04T10:22:11;101093.84;;;10.28;100.00
32081;BME280;18593;51.426;7.030;2024-02-04T10:24:39;101110.88;;;10.27;100.00
32081;BME280;18593;51.426;7.030;2024-02-04T10:27:06;101098.34;;;10.27;100.00
32081;BME280;18593;51.426;7.030;2024-02-04T10:29:34;101103.31;;;10.30;100.00
32081;BME280;18593;51.426;7.030;2024-02-04T10:32:03;101089.66;;;10.40;100.00
32081;BME280;18593;51.426;7.030;2024-02-04T10:34:30;101105.88;;;10.45;100.00
32081;BME280;18593;51.426;7.030;2024-02-04T10:36:57;101112.03;;;10.46;100.00
32081;BME280;18593;51.426;7.030;2024-02-04T10:39:27;101120.28;;;10.51;100.00
32081;BME280;18593;51.426;7.030;2024-02-04T10:41:58;101125.19;;;10.54;100.00
32081;BME280;18593;51.426;7.030;2024-02-04T10:44:35;101116.78;;;10.50;100.00
32081;BME280;18593;51.426;7.030;2024-02-04T10:47:06;101126.88;;;10.55;100.00
32081;BME280;18593;51.426;7.030;2024-02-04T10:49:37;101113.53;;;10.55;100.00
32081;BME280;18593;51.426;7.030;2024-02-04T10:52:12;101114.81;;;10.59;100.00
32081;BME280;18593;51.426;7.030;2024-02-04T10:54:41;101101.63;;;10.57;100.00
32081;BME280;18593;51.426;7.030;2024-02-04T10:57:13;101110.09;;;10.61;100.00
32081;BME280;18593;51.426;7.030;2024-02-04T10:59:40;101112.78;;;10.68;100.00
32081;BME280;18593;51.426;7.030;2024-02-04T11:02:08;101103.38;;;10.72;100.00
32081;BME280;18593;51.426;7.030;2024-02-04T11:04:37;101105.66;;;10.75;100.00
32081;BME280;18593;51.426;7.030;2024-02-04T11:07:06;101106.63;;;10.67;100.00
32081;BME280;18593;51.426;7.030;2024-02-04T11:09:34;101101.13;;;10.69;99.91
32081;BME280;18593;51.426;7.030;2024-02-04T11:12:12;101096.41;;;10.71;99.50
32081;BME280;18593;51.426;7.030;2024-02-04T11:14:46;101090.47;;;10.75;99.16
32081;BME280;18593;51.426;7.030;2024-02-04T11:17:53;101095.16;;;10.73;98.78
32081;BME280;18593;51.426;7.030;2024-02-04T11:20:57;101109.94;;;10.69;98.22
32081;BME280;18593;51.426;7.030;2024-02-04T11:23:45;101094.75;;;10.70;98.57
32081;BME280;18593;51.426;7.030;2024-02-04T11:26:16;101092.25;;;10.68;98.65
32081;BME280;18593;51.426;7.030;2024-02-04T11:28:46;101072.97;;;10.66;98.65
32081;BME280;18593;51.426;7.030;2024-02-04T11:31:15;101063.56;;;10.70;98.73
32081;BME280;18593;51.426;7.030;2024-02-04T11:33:45;101068.69;;;10.72;99.03
32081;BME280;18593;51.426;7.030;2024-02-04T11:36:13;101069.72;;;10.71;98.89
32081;BME280;18593;51.426;7.030;2024-02-04T11:38:48;101063.16;;;10.73;99.04
32081;BME280;18593;51.426;7.030;2024-02-04T11:41:22;101056.16;;;10.72;99.11
32081;BME280;18593;51.426;7.030;2024-02-04T11:43:55;101048.00;;;10.74;98.94
32081;BME280;18593;51.426;7.030;2024-02-04T11:46:28;101045.91;;;10.69;99.20
32081;BME280;18593;51.426;7.030;2024-02-04T11:48:59;101045.50;;;10.72;99.32
32081;BME280;18593;51.426;7.030;2024-02-04T11:51:27;101045.72;;;10.71;99.32
32081;BME280;18593;51.426;7.030;2024-02-04T11:53:55;101039.94;;;10.67;99.37
32081;BME280;18593;51.426;7.030;2024-02-04T11:56:24;101030.50;;;10.65;99.88
32081;BME280;18593;51.426;7.030;2024-02-04T11:58:54;101032.97;;;10.66;100.00
32081;BME280;18593;51.426;7.030;2024-02-04T12:01:22;101033.56;;;10.68;100.00
32081;BME280;18593;51.426;7.030;2024-02-04T12:03:52;101027.00;;;10.64;100.00
32081;BME280;18593;51.426;7.030;2024-02-04T12:06:21;101015.09;;;10.67;100.00
32081;BME280;18593;51.426;7.030;2024-02-04T12:08:48;101016.13;;;10.66;100.00
32081;BME280;18593;51.426;7.030;2024-02-04T12:11:16;101013.84;;;10.63;100.00
32081;BME280;18593;51.426;7.030;2024-02-04T12:13:44;101020.00;;;10.63;100.00
32081;BME280;18593;51.426;7.030;2024-02-04T12:16:14;101010.78;;;10.59;100.00
32081;BME280;18593;51.426;7.030;2024-02-04T12:18:48;101015.25;;;10.58;100.00
32081;BME280;18593;51.426;7.030;2024-02-04T12:21:18;101014.06;;;10.61;100.00
32081;BME280;18593;51.426;7.030;2024-02-04T12:23:45;101016.53;;;10.63;100.00
32081;BME280;18593;51.426;7.030;2024-02-04T12:26:13;101005.84;;;10.63;100.00
32081;BME280;18593;51.426;7.030;2024-02-04T12:28:41;101003.19;;;10.63;100.00
32081;BME280;18593;51.426;7.030;2024-02-04T12:31:17;101002.38;;;10.62;100.00
32081;BME280;18593;51.426;7.030;2024-02-04T12:33:53;100992.94;;;10.60;100.00
32081;BME280;18593;51.426;7.030;2024-02-04T12:36:25;100996.22;;;10.62;100.00
32081;BME280;18593;51.426;7.030;2024-02-04T12:38:54;100995.38;;;10.61;100.00
32081;BME280;18593;51.426;7.030;2024-02-04T12:41:23;100989.22;;;10.61;100.00
32081;BME280;18593;51.426;7.030;2024-02-04T12:43:52;101000.72;;;10.61;100.00
32081;BME280;18593;51.426;7.030;2024-02-04T12:46:22;100988.63;;;10.65;100.00
32081;BME280;18593;51.426;7.030;2024-02-04T12:48:53;100989.44;;;10.59;100.00
32081;BME280;18593;51.426;7.030;2024-02-04T12:51:25;100981.03;;;10.62;100.00
32081;BME280;18593;51.426;7.030;2024-02-04T12:54:04;100986.13;;;10.57;100.00